createdAt,value
2019-01-26T00:00:52.640Z,67.08
2019-01-26T00:03:24.289Z,66.88
2019-01-26T00:05:55.865Z,66.86
2019-01-26T00:08:27.438Z,67.26
2019-01-26T00:10:59.153Z,66.95
2019-01-26T00:13:30.709Z,66.99
2019-01-26T00:16:02.358Z,67.18
2019-01-26T00:18:35.086Z,67.19
2019-01-26T00:21:06.760Z,67.02
2019-01-26T00:23:38.329Z,67.05
2019-01-26T00:26:10.000Z,66.70
2019-01-26T00:28:41.871Z,67.14
2019-01-26T00:31:13.787Z,66.60
2019-01-26T00:33:45.871Z,67.18
2019-01-26T00:36:17.444Z,67.40
2019-01-26T00:38:49.102Z,67.13
2019-01-26T00:41:20.781Z,67.30
2019-01-26T00:43:52.449Z,67.23
2019-01-26T00:46:28.399Z,66.66
2019-01-26T00:48:57.362Z,66.64
2019-01-26T00:51:28.970Z,66.46
2019-01-26T00:54:00.552Z,66.43
2019-01-26T00:56:32.156Z,66.04
2019-01-26T00:59:03.839Z,65.94
2019-01-26T01:01:36.325Z,65.64
2019-01-26T01:04:07.977Z,65.48
2019-01-26T01:06:39.654Z,65.61
2019-01-26T01:09:11.570Z,65.85
2019-01-26T01:11:43.221Z,65.92
2019-01-26T01:14:14.959Z,66.29
2019-01-26T01:16:46.950Z,66.20
2019-01-26T01:19:18.775Z,66.13
2019-01-26T01:21:50.503Z,66.05
2019-01-26T01:24:22.082Z,65.64
2019-01-26T01:26:53.668Z,65.70
2019-01-26T01:29:25.303Z,66.50
2019-01-26T01:31:56.883Z,67.13
2019-01-26T01:34:28.468Z,66.72
2019-01-26T01:37:00.076Z,66.60
2019-01-26T01:39:31.765Z,66.98
2019-01-26T01:42:03.425Z,67.11
2019-01-26T01:44:35.071Z,67.24
2019-01-26T01:47:06.658Z,67.27
2019-01-26T01:49:38.236Z,67.81
2019-01-26T01:52:09.900Z,67.76
2019-01-26T01:54:41.698Z,67.48
2019-01-26T01:57:13.312Z,67.10
2019-01-26T01:59:45.645Z,67.39
2019-01-26T02:02:17.321Z,67.47
2019-01-26T02:04:48.999Z,67.40
2019-01-26T02:07:20.706Z,67.54
2019-01-26T02:09:52.336Z,67.15
2019-01-26T02:12:24.014Z,67.25
2019-01-26T02:14:55.584Z,67.47
2019-01-26T02:17:27.234Z,67.26
2019-01-26T02:19:58.796Z,67.54
2019-01-26T02:22:30.452Z,67.87
2019-01-26T02:25:02.056Z,67.43
2019-01-26T02:27:33.771Z,67.20
2019-01-26T02:30:06.544Z,67.81
2019-01-26T02:32:38.234Z,67.84
2019-01-26T02:35:09.821Z,67.54
2019-01-26T02:37:41.864Z,67.14
2019-01-26T02:40:13.782Z,67.60
2019-01-26T02:42:45.755Z,67.22
2019-01-26T02:45:17.336Z,67.12
2019-01-26T02:47:48.959Z,67.32
2019-01-26T02:50:20.555Z,66.97
2019-01-26T02:52:52.580Z,67.27
2019-01-26T02:55:24.161Z,67.93
2019-01-26T02:57:55.887Z,67.98
2019-01-26T03:00:27.462Z,67.91
2019-01-26T03:02:59.034Z,68.39
2019-01-26T03:05:31.066Z,68.14
2019-01-26T03:08:02.638Z,68.58
2019-01-26T03:10:34.215Z,68.35
2019-01-26T03:13:05.939Z,68.50
2019-01-26T03:15:37.641Z,68.57
2019-01-26T03:18:09.285Z,69.25
2019-01-26T03:20:40.932Z,69.22
2019-01-26T03:23:12.864Z,69.33
2019-01-26T03:25:45.018Z,70.21
2019-01-26T03:28:16.865Z,70.14
2019-01-26T03:30:48.804Z,70.75
2019-01-26T03:33:20.417Z,70.91
2019-01-26T03:35:52.113Z,71.07
2019-01-26T03:38:23.704Z,71.12
2019-01-26T03:40:55.321Z,71.22
2019-01-26T03:43:26.936Z,71.35
2019-01-26T03:45:58.575Z,71.35
2019-01-26T03:48:30.159Z,71.32
2019-01-26T03:51:01.807Z,71.43
2019-01-26T03:53:33.472Z,71.76
2019-01-26T03:56:05.113Z,71.67
2019-01-26T03:58:36.710Z,71.42
2019-01-26T04:01:08.286Z,71.54
2019-01-26T04:03:39.872Z,71.44
2019-01-26T04:06:11.895Z,71.38
2019-01-26T04:08:43.827Z,71.63
2019-01-26T04:11:15.932Z,72.17
2019-01-26T04:13:47.513Z,72.04
2019-01-26T04:16:19.099Z,72.71
2019-01-26T04:18:50.690Z,72.80
2019-01-26T04:21:22.324Z,72.69
2019-01-26T04:23:53.914Z,72.95
2019-01-26T04:26:25.487Z,72.72
2019-01-26T04:28:57.102Z,72.61
2019-01-26T04:31:28.685Z,72.42
2019-01-26T04:34:00.259Z,71.61
2019-01-26T04:36:31.904Z,71.56
2019-01-26T04:39:05.158Z,71.65
2019-01-26T04:41:36.794Z,71.77
2019-01-26T04:44:08.442Z,73.84
2019-01-26T04:46:40.011Z,74.53
2019-01-26T04:49:11.935Z,74.79
2019-01-26T04:51:43.808Z,74.24
2019-01-26T04:54:15.770Z,73.44
2019-01-26T04:56:47.510Z,74.63
2019-01-26T04:59:19.113Z,73.31
2019-01-26T05:01:50.693Z,72.85
2019-01-26T05:04:22.283Z,73.80
2019-01-26T05:06:53.849Z,73.06
2019-01-26T05:09:25.461Z,73.31
2019-01-26T05:11:57.132Z,73.93
2019-01-26T05:14:28.789Z,73.77
2019-01-26T05:17:00.422Z,73.80
2019-01-26T05:19:32.109Z,74.69
2019-01-26T05:22:03.795Z,76.29
2019-01-26T05:24:35.445Z,75.10
2019-01-26T05:27:07.096Z,74.61
2019-01-26T05:29:38.768Z,75.52
2019-01-26T05:32:10.471Z,74.72
2019-01-26T05:34:42.054Z,75.73
2019-01-26T05:37:13.871Z,75.42
2019-01-26T05:39:45.890Z,74.43
2019-01-26T05:42:17.527Z,74.46
2019-01-26T05:44:49.173Z,76.50
2019-01-26T05:47:20.831Z,74.61
2019-01-26T05:49:52.477Z,75.35
2019-01-26T05:52:24.128Z,73.67
2019-01-26T05:54:55.884Z,74.57
2019-01-26T05:57:27.852Z,74.51
2019-01-26T05:59:59.536Z,74.50
2019-01-26T06:02:31.118Z,74.34
2019-01-26T06:05:02.696Z,74.70
2019-01-26T06:07:34.262Z,75.04
2019-01-26T06:10:06.344Z,75.36
2019-01-26T06:12:37.997Z,76.21
2019-01-26T06:15:10.751Z,75.74
2019-01-26T06:17:45.678Z,76.70
2019-01-26T06:20:17.476Z,77.38
2019-01-26T06:22:49.115Z,77.72
2019-01-26T06:25:20.864Z,78.54
2019-01-26T06:27:52.544Z,79.21
2019-01-26T06:30:25.819Z,79.60
2019-01-26T06:32:57.384Z,79.78
2019-01-26T06:35:28.966Z,79.84
2019-01-26T06:38:00.624Z,79.97
2019-01-26T06:40:32.292Z,79.51
2019-01-26T06:43:03.884Z,79.64
2019-01-26T06:45:35.486Z,79.06
2019-01-26T06:48:07.239Z,80.40
2019-01-26T06:50:38.826Z,80.70
2019-01-26T06:53:10.416Z,79.80
2019-01-26T06:55:42.010Z,78.83
2019-01-26T06:58:13.818Z,79.27
2019-01-26T07:00:45.784Z,79.01
2019-01-26T07:03:17.420Z,79.99
2019-01-26T07:05:59.345Z,78.80
2019-01-26T07:08:30.907Z,79.34
2019-01-26T07:11:02.582Z,78.95
2019-01-26T07:13:34.419Z,78.82
2019-01-26T07:16:06.124Z,79.30
2019-01-26T07:18:37.696Z,79.60
2019-01-26T07:21:09.263Z,80.13
2019-01-26T07:23:40.912Z,80.03
2019-01-26T07:26:12.887Z,80.02
2019-01-26T07:28:44.465Z,79.68
2019-01-26T07:31:16.032Z,80.15
2019-01-26T07:33:47.672Z,80.45
2019-01-26T07:36:19.287Z,79.71
2019-01-26T07:38:50.869Z,79.89
2019-01-26T07:41:22.610Z,79.71
2019-01-26T07:43:54.186Z,79.66
2019-01-26T07:46:25.853Z,79.82
2019-01-26T07:48:57.418Z,79.67
2019-01-26T07:51:28.981Z,79.90
2019-01-26T07:54:01.619Z,79.41
2019-01-26T07:56:33.263Z,79.61
2019-01-26T07:59:04.837Z,79.58
2019-01-26T08:01:36.423Z,79.85
2019-01-26T08:04:08.075Z,78.93
2019-01-26T08:06:39.710Z,78.87
2019-01-26T08:09:11.265Z,78.23
2019-01-26T08:11:42.960Z,81.14
2019-01-26T08:14:15.696Z,78.41
2019-01-26T08:16:47.289Z,78.27
2019-01-26T08:19:19.942Z,78.10
2019-01-26T08:21:51.621Z,79.46
2019-01-26T08:24:23.266Z,78.16
2019-01-26T08:26:54.883Z,78.49
2019-01-26T08:29:26.469Z,79.07
2019-01-26T08:31:58.055Z,78.57
2019-01-26T08:34:29.769Z,78.19
2019-01-26T08:37:01.465Z,78.24
2019-01-26T08:39:33.121Z,77.40
2019-01-26T08:42:04.802Z,78.37
2019-01-26T08:44:36.377Z,76.71
2019-01-26T08:47:08.133Z,76.21
2019-01-26T08:49:39.783Z,76.70
2019-01-26T08:52:11.453Z,76.06
2019-01-26T08:54:43.024Z,77.30
2019-01-26T08:57:15.100Z,76.84
2019-01-26T08:59:46.904Z,76.67
2019-01-26T09:02:32.754Z,75.96
2019-01-26T09:05:04.800Z,75.50
2019-01-26T09:07:36.399Z,74.91
2019-01-26T09:10:08.114Z,75.43
2019-01-26T09:12:40.584Z,76.79
2019-01-26T09:15:12.592Z,75.24
2019-01-26T09:17:44.261Z,75.33
2019-01-26T09:20:15.986Z,74.16
2019-01-26T09:22:47.658Z,76.34
2019-01-26T09:25:19.212Z,76.26
2019-01-26T09:27:50.990Z,77.14
2019-01-26T09:30:22.625Z,76.31
2019-01-26T09:32:54.278Z,76.63
2019-01-26T09:35:25.859Z,75.29
2019-01-26T09:37:57.484Z,76.09
2019-01-26T09:40:29.064Z,75.68
2019-01-26T09:43:00.731Z,76.40
2019-01-26T09:45:33.076Z,77.68
2019-01-26T09:48:04.769Z,76.62
2019-01-26T09:50:36.446Z,76.47
2019-01-26T09:53:08.112Z,77.09
2019-01-26T09:55:39.770Z,77.32
2019-01-26T09:58:11.354Z,77.05
2019-01-26T10:00:43.009Z,76.42
2019-01-26T10:03:15.030Z,76.68
2019-01-26T10:05:46.924Z,77.52
2019-01-26T10:08:19.751Z,77.08
2019-01-26T10:10:52.451Z,77.14
2019-01-26T10:13:24.122Z,77.33
2019-01-26T10:15:55.700Z,77.70
2019-01-26T10:18:27.336Z,77.11
2019-01-26T10:20:59.163Z,79.92
2019-01-26T10:23:30.901Z,79.08
2019-01-26T10:26:02.570Z,77.87
2019-01-26T10:28:34.258Z,78.43
2019-01-26T10:31:05.900Z,78.00
2019-01-26T10:33:37.535Z,77.00
2019-01-26T10:36:21.723Z,77.36
2019-01-26T10:38:55.738Z,77.80
2019-01-26T10:41:52.232Z,76.51
2019-01-26T10:44:29.013Z,75.68
2019-01-26T10:47:00.649Z,77.28
2019-01-26T10:49:32.324Z,75.87
2019-01-26T10:52:05.067Z,76.03
2019-01-26T10:54:36.741Z,76.60
2019-01-26T10:57:08.699Z,76.48
2019-01-26T10:59:40.380Z,76.68
2019-01-26T11:02:11.997Z,75.74
2019-01-26T11:04:43.763Z,77.00
2019-01-26T11:07:15.905Z,77.88
2019-01-26T11:09:47.597Z,76.93
2019-01-26T11:12:19.234Z,75.76
2019-01-26T11:14:50.829Z,75.88
2019-01-26T11:17:22.474Z,75.97
2019-01-26T11:19:54.354Z,75.91
2019-01-26T11:22:26.045Z,76.18
2019-01-26T11:24:57.722Z,75.67
2019-01-26T11:27:29.998Z,76.96
2019-01-26T11:30:01.718Z,75.36
2019-01-26T11:32:34.629Z,76.34
2019-01-26T11:35:07.513Z,76.03
2019-01-26T11:37:39.158Z,75.52
2019-01-26T11:40:20.234Z,75.91
2019-01-26T11:42:51.911Z,76.44
2019-01-26T11:45:48.463Z,77.22
2019-01-26T11:48:23.050Z,74.87
2019-01-26T11:51:00.142Z,78.05
2019-01-26T11:53:31.782Z,76.52
2019-01-26T11:56:08.469Z,77.14
2019-01-26T11:58:40.089Z,75.09
2019-01-26T12:01:39.698Z,76.42
2019-01-26T12:04:33.062Z,76.04
2019-01-26T12:07:12.740Z,75.95
2019-01-26T12:09:44.872Z,75.22
2019-01-26T12:12:16.872Z,75.92
2019-01-26T12:14:48.865Z,75.21
2019-01-26T12:17:20.539Z,74.57
2019-01-26T12:19:52.224Z,75.54
2019-01-26T12:22:26.625Z,76.51
2019-01-26T12:24:58.262Z,75.41
2019-01-26T12:27:29.881Z,74.30
2019-01-26T12:30:01.507Z,73.78
2019-01-26T12:32:35.442Z,74.16
2019-01-26T12:35:11.187Z,74.70
2019-01-26T12:37:47.721Z,73.78
2019-01-26T12:40:21.480Z,74.16
2019-01-26T12:42:53.751Z,74.26
2019-01-26T12:45:25.687Z,74.47
2019-01-26T12:47:57.370Z,74.59
2019-01-26T12:50:32.213Z,74.99
2019-01-26T12:53:06.223Z,74.27
2019-01-26T12:55:42.418Z,74.33
2019-01-26T12:58:21.064Z,73.92
2019-01-26T13:00:55.358Z,73.87
2019-01-26T13:03:30.554Z,75.60
2019-01-26T13:06:04.447Z,74.76
2019-01-26T13:08:40.929Z,74.74
2019-01-26T13:11:20.886Z,75.09
2019-01-26T13:13:53.111Z,75.19
2019-01-26T13:16:24.677Z,74.96
2019-01-26T13:18:56.901Z,75.76
2019-01-26T13:21:28.488Z,74.70
2019-01-26T13:24:00.170Z,74.15
2019-01-26T13:26:31.875Z,75.50
2019-01-26T13:29:03.574Z,75.85
2019-01-26T13:31:36.632Z,75.24
2019-01-26T13:34:09.670Z,74.49
2019-01-26T13:36:41.239Z,75.12
2019-01-26T13:39:13.042Z,75.47
2019-01-26T13:41:44.729Z,75.81
2019-01-26T13:44:17.282Z,75.42
2019-01-26T13:46:49.238Z,75.78
2019-01-26T13:49:20.835Z,75.87
2019-01-26T13:51:52.588Z,75.87
2019-01-26T13:54:24.239Z,75.71
2019-01-26T13:56:55.871Z,75.41
2019-01-26T13:59:27.749Z,75.46
2019-01-26T14:01:59.711Z,75.15
2019-01-26T14:04:31.486Z,75.29
2019-01-26T14:07:03.817Z,75.09
2019-01-26T14:09:35.454Z,75.63
2019-01-26T14:12:07.113Z,76.09
2019-01-26T14:14:39.834Z,76.54
2019-01-26T14:17:12.217Z,76.20
2019-01-26T14:19:43.864Z,76.71
2019-01-26T14:22:15.583Z,76.60
2019-01-26T14:24:47.425Z,76.52
2019-01-26T14:27:19.431Z,76.67
2019-01-26T14:29:51.080Z,76.57
2019-01-26T14:32:22.678Z,76.78
2019-01-26T14:34:54.338Z,76.70
2019-01-26T14:37:29.573Z,76.67
2019-01-26T14:40:03.072Z,76.42
2019-01-26T14:42:36.463Z,76.88
2019-01-26T14:45:11.907Z,77.23
2019-01-26T14:47:46.538Z,76.86
2019-01-26T14:50:21.048Z,76.67
2019-01-26T14:52:55.967Z,76.54
2019-01-26T14:55:31.590Z,76.41
2019-01-26T14:58:03.503Z,76.17
2019-01-26T15:00:35.409Z,76.88
2019-01-26T15:03:08.290Z,76.66
2019-01-26T15:05:41.750Z,77.12
2019-01-26T15:08:15.506Z,76.66
2019-01-26T15:10:49.206Z,76.81
2019-01-26T15:13:21.689Z,76.55
2019-01-26T15:15:54.587Z,76.88
2019-01-26T15:18:27.643Z,76.86
2019-01-26T15:20:59.885Z,77.43
2019-01-26T15:23:31.845Z,77.01
2019-01-26T15:26:04.003Z,76.94
2019-01-26T15:28:35.913Z,77.12
2019-01-26T15:31:07.499Z,77.25
2019-01-26T15:33:40.822Z,78.36
2019-01-26T15:36:15.831Z,77.52
2019-01-26T15:38:49.305Z,77.51
2019-01-26T15:41:25.208Z,77.57
2019-01-26T15:43:58.828Z,77.67
2019-01-26T15:46:32.204Z,77.74
2019-01-26T15:49:06.872Z,78.26
2019-01-26T15:51:40.997Z,77.46
2019-01-26T15:54:15.617Z,77.69
2019-01-26T15:56:49.395Z,78.50
2019-01-26T15:59:22.805Z,77.87
2019-01-26T16:01:55.482Z,77.83
2019-01-26T16:04:30.603Z,77.88
2019-01-26T16:07:04.305Z,78.11
2019-01-26T16:09:37.285Z,78.03
2019-01-26T16:12:11.657Z,78.24
2019-01-26T16:14:46.615Z,78.66
2019-01-26T16:17:19.759Z,78.48
2019-01-26T16:19:54.255Z,78.44
2019-01-26T16:22:28.855Z,78.47
2019-01-26T16:25:00.873Z,79.13
2019-01-26T16:27:34.546Z,78.52
2019-01-26T16:30:11.349Z,78.40
2019-01-26T16:32:45.369Z,78.86
2019-01-26T16:35:18.664Z,78.50
2019-01-26T16:37:50.719Z,78.57
2019-01-26T16:40:27.003Z,78.44
2019-01-26T16:43:01.491Z,78.95
2019-01-26T16:45:37.842Z,78.94
2019-01-26T16:48:14.527Z,78.45
2019-01-26T16:50:46.525Z,78.30
2019-01-26T16:53:18.077Z,78.47
2019-01-26T16:55:49.640Z,78.27
2019-01-26T16:58:21.218Z,77.85
2019-01-26T17:00:55.595Z,77.58
2019-01-26T17:03:27.244Z,77.38
2019-01-26T17:05:58.877Z,77.86
2019-01-26T17:08:30.482Z,77.98
2019-01-26T17:11:02.039Z,77.23
2019-01-26T17:13:33.701Z,76.75
2019-01-26T17:16:05.329Z,77.06
2019-01-26T17:18:36.977Z,76.74
2019-01-26T17:21:08.533Z,77.05
2019-01-26T17:23:40.090Z,77.48
2019-01-26T17:26:11.653Z,77.08
2019-01-26T17:28:43.671Z,77.30
2019-01-26T17:31:15.750Z,76.67
2019-01-26T17:33:47.677Z,76.53
2019-01-26T17:36:19.573Z,76.71
2019-01-26T17:38:51.237Z,77.06
2019-01-26T17:41:22.856Z,77.22
2019-01-26T17:43:54.532Z,77.24
2019-01-26T17:46:26.174Z,77.67
2019-01-26T17:48:57.750Z,77.99
2019-01-26T17:51:29.381Z,76.93
2019-01-26T17:54:01.032Z,77.32
2019-01-26T17:56:32.657Z,77.78
2019-01-26T17:59:04.308Z,78.17
2019-01-26T18:01:35.946Z,78.64
2019-01-26T18:04:07.625Z,78.74
2019-01-26T18:06:39.252Z,77.78
2019-01-26T18:09:10.904Z,77.31
2019-01-26T18:11:42.704Z,77.45
2019-01-26T18:14:14.694Z,77.32
2019-01-26T18:16:46.750Z,77.46
2019-01-26T18:19:18.411Z,77.61
2019-01-26T18:21:49.982Z,78.36
2019-01-26T18:24:21.641Z,78.11
2019-01-26T18:26:53.228Z,78.08
2019-01-26T18:29:24.901Z,78.28
2019-01-26T18:31:56.535Z,78.12
2019-01-26T18:34:28.184Z,78.46
2019-01-26T18:36:59.818Z,79.42
2019-01-26T18:39:31.480Z,79.59
2019-01-26T18:42:03.127Z,79.56
2019-01-26T18:44:34.890Z,79.65
2019-01-26T18:47:06.550Z,80.07
2019-01-26T18:49:38.212Z,79.87
2019-01-26T18:52:09.850Z,81.56
2019-01-26T18:54:41.609Z,80.59
2019-01-26T18:57:13.459Z,81.40
2019-01-26T18:59:45.106Z,79.73
2019-01-26T19:02:16.747Z,79.89
2019-01-26T19:04:52.603Z,79.11
2019-01-26T19:07:24.443Z,79.55
2019-01-26T19:09:56.152Z,81.03
2019-01-26T19:12:27.763Z,80.12
2019-01-26T19:14:59.426Z,80.63
2019-01-26T19:17:31.059Z,80.86
2019-01-26T19:20:02.824Z,82.28
2019-01-26T19:22:34.460Z,81.46
2019-01-26T19:25:07.397Z,81.94
2019-01-26T19:27:39.014Z,82.45
2019-01-26T19:30:11.674Z,82.05
2019-01-26T19:32:43.546Z,82.29
2019-01-26T19:35:15.261Z,80.95
2019-01-26T19:37:47.215Z,81.47
2019-01-26T19:40:20.257Z,81.24
2019-01-26T19:42:51.903Z,81.55
2019-01-26T19:45:24.592Z,82.96
2019-01-26T19:47:56.227Z,82.21
2019-01-26T19:50:27.819Z,82.21
2019-01-26T19:52:59.439Z,82.17
2019-01-26T19:55:31.183Z,82.56
2019-01-26T19:58:02.819Z,81.99
2019-01-26T20:00:34.467Z,82.20
2019-01-26T20:03:06.106Z,81.96
2019-01-26T20:05:37.783Z,82.75
2019-01-26T20:08:09.429Z,82.51
2019-01-26T20:10:41.081Z,82.85
2019-01-26T20:13:14.058Z,81.98
2019-01-26T20:15:45.686Z,81.97
2019-01-26T20:18:17.311Z,82.35
2019-01-26T20:20:48.954Z,81.85
2019-01-26T20:23:20.595Z,82.29
2019-01-26T20:25:52.491Z,81.59
2019-01-26T20:28:24.067Z,82.03
2019-01-26T20:30:55.712Z,82.16
2019-01-26T20:33:27.421Z,83.15
2019-01-26T20:35:59.145Z,82.01
2019-01-26T20:38:30.786Z,81.72
2019-01-26T20:41:02.428Z,81.22
2019-01-26T20:43:34.077Z,81.76
2019-01-26T20:46:05.728Z,80.93
2019-01-26T20:48:40.292Z,80.52
2019-01-26T20:51:14.318Z,80.31
2019-01-26T20:53:46.404Z,80.52
2019-01-26T20:56:20.641Z,80.73
2019-01-26T20:58:55.697Z,80.81
2019-01-26T21:01:29.399Z,81.77
2019-01-26T21:04:01.674Z,81.94
2019-01-26T21:06:36.093Z,82.29
2019-01-26T21:09:09.562Z,82.26
2019-01-26T21:11:42.068Z,82.52
2019-01-26T21:14:14.206Z,82.04
2019-01-26T21:16:46.221Z,81.94
2019-01-26T21:19:19.453Z,81.97
2019-01-26T21:21:54.170Z,82.00
2019-01-26T21:24:28.560Z,81.97
2019-01-26T21:27:02.239Z,82.23
2019-01-26T21:29:38.434Z,82.30
2019-01-26T21:32:13.552Z,82.35
2019-01-26T21:34:46.699Z,82.46
2019-01-26T21:37:20.442Z,81.94
2019-01-26T21:39:52.534Z,81.84
2019-01-26T21:42:27.089Z,81.96
2019-01-26T21:44:59.177Z,81.81
2019-01-26T21:47:30.792Z,81.19
2019-01-26T21:50:02.442Z,81.07
2019-01-26T21:52:40.796Z,81.14
2019-01-26T21:55:07.730Z,80.68
2019-01-26T21:57:39.394Z,80.51
2019-01-26T22:00:16.603Z,80.34
2019-01-26T22:02:48.606Z,80.39
2019-01-26T22:05:21.183Z,80.27
2019-01-26T22:07:53.004Z,80.41
2019-01-26T22:10:24.640Z,79.82
2019-01-26T22:12:56.222Z,80.37
2019-01-26T22:15:27.875Z,80.58
2019-01-26T22:17:59.524Z,80.60
2019-01-26T22:20:31.183Z,80.64
2019-01-26T22:23:02.801Z,80.55
2019-01-26T22:25:34.446Z,80.43
2019-01-26T22:28:06.134Z,80.52
2019-01-26T22:30:37.707Z,80.62
2019-01-26T22:33:09.345Z,80.47
2019-01-26T22:35:40.925Z,80.84
2019-01-26T22:38:12.519Z,80.52
2019-01-26T22:40:44.126Z,79.99
2019-01-26T22:43:16.148Z,79.82
2019-01-26T22:45:47.981Z,79.92
2019-01-26T22:48:20.174Z,79.40
2019-01-26T22:50:51.889Z,79.26
2019-01-26T22:53:23.574Z,79.83
2019-01-26T22:55:55.150Z,80.60
2019-01-26T22:58:26.811Z,81.07
2019-01-26T23:01:18.140Z,81.47
2019-01-26T23:04:13.690Z,81.60
2019-01-26T23:07:11.774Z,81.09
2019-01-26T23:09:54.927Z,81.13
2019-01-26T23:12:44.801Z,81.91
2019-01-26T23:15:58.749Z,81.65
2019-01-26T23:18:46.899Z,81.32
2019-01-26T23:21:50.880Z,81.51
2019-01-26T23:24:42.655Z,80.96
2019-01-26T23:27:34.510Z,80.75
2019-01-26T23:30:48.676Z,80.94
2019-01-26T23:33:20.387Z,80.35
2019-01-26T23:35:51.982Z,80.16
2019-01-26T23:38:23.608Z,80.37
2019-01-26T23:40:55.280Z,80.36
2019-01-26T23:43:26.891Z,80.03
2019-01-26T23:45:58.548Z,79.93
2019-01-26T23:48:30.206Z,79.89
2019-01-26T23:51:01.903Z,81.00
2019-01-26T23:53:33.575Z,81.17
2019-01-26T23:56:05.270Z,81.62
2019-01-26T23:58:36.916Z,81.65
